createdAt,value
2019-04-14T00:01:41.255Z,95356.44
2019-04-14T00:04:29.044Z,95356.56
2019-04-14T00:06:57.621Z,95359.97
2019-04-14T00:09:27.323Z,95360.39
2019-04-14T00:11:56.948Z,95354.80
2019-04-14T00:14:27.117Z,95364.86
2019-04-14T00:16:57.408Z,95361.94
2019-04-14T00:19:26.215Z,95358.48
2019-04-14T00:21:55.149Z,95357.42
2019-04-14T00:24:24.932Z,95352.97
2019-04-14T00:26:53.778Z,95357.88
2019-04-14T00:29:22.393Z,95354.81
2019-04-14T00:31:53.717Z,95347.64
2019-04-14T00:34:46.653Z,95352.97
2019-04-14T00:37:28.032Z,95354.10
2019-04-14T00:40:00.370Z,95359.35
2019-04-14T00:42:37.124Z,95350.25
2019-04-14T00:45:11.675Z,95353.56
2019-04-14T00:47:54.778Z,95349.53
2019-04-14T00:50:14.734Z,95354.00
2019-04-14T00:52:43.708Z,95351.14
2019-04-14T00:55:12.452Z,95351.53
2019-04-14T00:57:41.972Z,95345.68
2019-04-14T01:00:11.047Z,95345.44
2019-04-14T01:02:40.699Z,95343.17
2019-04-14T01:05:09.504Z,95353.09
2019-04-14T01:07:39.126Z,95347.81
2019-04-14T01:10:08.195Z,95351.37
2019-04-14T01:12:37.093Z,95349.52
2019-04-14T01:15:07.187Z,95339.89
2019-04-14T01:17:37.133Z,95353.31
2019-04-14T01:20:07.824Z,95352.41
2019-04-14T01:22:36.522Z,95351.03
2019-04-14T01:25:06.460Z,95348.22
2019-04-14T01:27:36.329Z,95352.94
2019-04-14T01:30:06.636Z,95345.70
2019-04-14T01:32:35.525Z,95347.30
2019-04-14T01:35:05.357Z,95349.63
2019-04-14T01:37:35.378Z,95345.03
2019-04-14T01:40:05.214Z,95353.95
2019-04-14T01:42:33.902Z,95352.53
2019-04-14T01:45:03.609Z,95351.33
2019-04-14T01:47:33.414Z,95349.38
2019-04-14T01:50:02.357Z,95351.03
2019-04-14T01:52:45.891Z,95353.19
2019-04-14T01:55:37.347Z,95345.54
2019-04-14T01:58:18.651Z,95357.00
2019-04-14T02:00:51.374Z,95357.90
2019-04-14T02:03:19.993Z,95359.19
2019-04-14T02:05:49.613Z,95363.05
2019-04-14T02:08:19.574Z,95355.38
2019-04-14T02:10:48.339Z,95358.22
2019-04-14T02:13:17.933Z,95361.58
2019-04-14T02:15:46.724Z,95362.55
2019-04-14T02:18:16.377Z,95364.54
2019-04-14T02:20:44.980Z,95364.08
2019-04-14T02:23:14.715Z,95362.89
2019-04-14T02:25:43.403Z,95361.62
2019-04-14T02:28:13.327Z,95369.97
2019-04-14T02:30:53.631Z,95362.70
2019-04-14T02:36:11.986Z,95363.19
2019-04-14T02:41:02.969Z,95371.34
2019-04-14T02:48:44.238Z,95367.63
2019-04-14T02:51:05.795Z,95367.67
2019-04-14T02:53:42.013Z,95364.05
2019-04-14T02:56:10.009Z,95373.33
2019-04-14T03:01:10.128Z,95370.25
2019-04-14T03:06:08.676Z,95371.67
2019-04-14T03:08:45.863Z,95372.69
2019-04-14T03:13:45.577Z,95371.91
2019-04-14T03:16:15.278Z,95375.82
2019-04-14T03:18:50.600Z,95377.38
2019-04-14T03:24:32.097Z,95382.16
2019-04-14T03:27:13.460Z,95379.94
2019-04-14T03:29:43.380Z,95380.73
2019-04-14T03:35:30.219Z,95372.43
2019-04-14T03:37:43.198Z,95376.47
2019-04-14T03:39:46.262Z,95375.34
2019-04-14T03:42:29.680Z,95382.59
2019-04-14T03:44:49.243Z,95384.66
2019-04-14T03:47:21.765Z,95384.02
2019-04-14T03:52:21.867Z,95379.00
2019-04-14T03:54:45.517Z,95379.58
2019-04-14T03:56:57.693Z,95382.61
2019-04-14T03:59:26.448Z,95382.73
2019-04-14T04:01:56.446Z,95385.44
2019-04-14T04:04:25.411Z,95384.63
2019-04-14T04:06:55.221Z,95381.95
2019-04-14T04:09:30.089Z,95389.19
2019-04-14T04:11:58.649Z,95380.30
2019-04-14T04:14:29.098Z,95384.30
2019-04-14T04:17:08.391Z,95383.89
2019-04-14T04:20:08.948Z,95390.41
2019-04-14T04:23:05.835Z,95389.09
2019-04-14T04:25:42.261Z,95385.45
2019-04-14T04:28:28.370Z,95385.56
2019-04-14T04:31:02.451Z,95386.59
2019-04-14T04:33:50.089Z,95385.99
2019-04-14T04:36:35.730Z,95391.16
2019-04-14T04:39:13.030Z,95395.12
2019-04-14T04:41:42.805Z,95391.19
2019-04-14T04:44:11.754Z,95396.17
2019-04-14T04:46:41.528Z,95396.72
2019-04-14T04:49:16.531Z,95395.60
2019-04-14T04:51:40.540Z,95401.44
2019-04-14T04:54:10.294Z,95402.98
2019-04-14T04:56:39.168Z,95408.28
2019-04-14T04:59:08.170Z,95407.92
2019-04-14T05:01:37.051Z,95422.58
2019-04-14T05:04:06.783Z,95422.23
2019-04-14T05:07:07.867Z,95426.37
2019-04-14T05:09:55.605Z,95423.47
2019-04-14T05:12:50.200Z,95422.55
2019-04-14T05:15:37.923Z,95420.69
2019-04-14T05:18:07.237Z,95421.81
2019-04-14T05:20:35.897Z,95424.60
2019-04-14T05:23:05.807Z,95426.38
2019-04-14T05:25:35.049Z,95428.89
2019-04-14T05:28:04.813Z,95424.95
2019-04-14T05:30:34.919Z,95426.23
2019-04-14T05:33:03.555Z,95432.48
2019-04-14T05:35:33.321Z,95435.87
2019-04-14T05:38:02.285Z,95444.59
2019-04-14T05:40:32.053Z,95445.80
2019-04-14T05:43:00.988Z,95448.13
2019-04-14T05:45:30.645Z,95443.71
2019-04-14T05:47:59.261Z,95449.01
2019-04-14T05:50:29.158Z,95455.98
2019-04-14T05:52:57.986Z,95449.77
2019-04-14T05:55:26.539Z,95459.25
2019-04-14T05:57:55.189Z,95460.69
2019-04-14T06:00:24.068Z,95471.94
2019-04-14T06:02:52.754Z,95468.80
2019-04-14T06:05:21.517Z,95466.66
2019-04-14T06:07:50.424Z,95465.94
2019-04-14T06:10:19.166Z,95471.63
2019-04-14T06:12:48.011Z,95469.09
2019-04-14T06:15:17.067Z,95469.09
2019-04-14T06:17:45.771Z,95472.83
2019-04-14T06:20:14.868Z,95479.22
2019-04-14T06:22:43.650Z,95476.82
2019-04-14T06:25:12.527Z,95469.22
2019-04-14T06:27:41.500Z,95469.58
2019-04-14T06:30:28.868Z,95470.05
2019-04-14T06:32:59.805Z,95469.98
2019-04-14T06:35:36.956Z,95466.92
2019-04-14T06:38:07.986Z,95471.86
2019-04-14T06:40:49.559Z,95476.35
2019-04-14T06:43:18.201Z,95465.78
2019-04-14T06:45:47.430Z,95474.52
2019-04-14T06:48:16.217Z,95468.66
2019-04-14T06:50:46.459Z,95472.37
2019-04-14T06:53:15.247Z,95469.43
2019-04-14T06:55:43.978Z,95466.90
2019-04-14T06:58:12.693Z,95474.86
2019-04-14T07:00:41.354Z,95470.80
2019-04-14T07:03:10.047Z,95465.63
2019-04-14T07:05:38.705Z,95474.80
2019-04-14T07:08:07.390Z,95469.88
2019-04-14T07:10:36.085Z,95471.30
2019-04-14T07:13:04.825Z,95468.66
2019-04-14T07:15:33.458Z,95474.83
2019-04-14T07:18:03.097Z,95473.98
2019-04-14T07:20:31.821Z,95470.69
2019-04-14T07:23:00.497Z,95477.20
2019-04-14T07:25:29.125Z,95480.05
2019-04-14T07:27:57.925Z,95483.56
2019-04-14T07:30:52.867Z,95485.09
2019-04-14T07:33:33.676Z,95481.16
2019-04-14T07:36:20.963Z,95483.27
2019-04-14T07:38:54.200Z,95487.91
2019-04-14T07:41:35.475Z,95479.03
2019-04-14T07:44:29.239Z,95485.25
2019-04-14T07:47:15.667Z,95489.36
2019-04-14T07:50:13.782Z,95484.47
2019-04-14T07:52:57.356Z,95481.72
2019-04-14T07:55:36.779Z,95485.09
2019-04-14T07:58:23.186Z,95477.73
2019-04-14T08:01:02.486Z,95490.79
2019-04-14T08:03:43.905Z,95487.88
2019-04-14T08:06:12.563Z,95485.34
2019-04-14T08:08:41.306Z,95483.17
2019-04-14T08:11:09.956Z,95483.95
2019-04-14T08:13:38.963Z,95484.86
2019-04-14T08:16:07.649Z,95485.00
2019-04-14T08:18:36.269Z,95486.27
2019-04-14T08:21:04.983Z,95489.95
2019-04-14T08:23:33.582Z,95492.88
2019-04-14T08:26:02.283Z,95493.18
2019-04-14T08:28:31.138Z,95488.45
2019-04-14T08:31:00.012Z,95490.09
2019-04-14T08:33:28.632Z,95490.20
2019-04-14T08:35:57.269Z,95498.91
2019-04-14T08:38:26.139Z,95504.95
2019-04-14T08:40:54.783Z,95497.55
2019-04-14T08:43:41.379Z,95492.81
2019-04-14T08:46:18.903Z,95485.76
2019-04-14T08:48:54.959Z,95492.94
2019-04-14T08:51:47.476Z,95498.05
2019-04-14T08:54:33.987Z,95491.72
2019-04-14T08:57:21.671Z,95493.86
2019-04-14T09:00:18.246Z,95493.13
2019-04-14T09:03:20.931Z,95498.66
2019-04-14T09:06:01.055Z,95497.86
2019-04-14T09:08:33.734Z,95497.25
2019-04-14T09:11:03.988Z,95498.98
2019-04-14T09:13:32.817Z,95498.34
2019-04-14T09:16:01.498Z,95502.53
2019-04-14T09:18:30.296Z,95498.39
2019-04-14T09:20:58.913Z,95504.63
2019-04-14T09:23:27.665Z,95498.78
2019-04-14T09:25:56.348Z,95514.67
2019-04-14T09:28:24.978Z,95494.45
2019-04-14T09:30:53.637Z,95499.66
2019-04-14T09:33:22.301Z,95498.37
2019-04-14T09:35:50.970Z,95503.11
2019-04-14T09:38:19.644Z,95507.38
2019-04-14T09:40:48.670Z,95506.49
2019-04-14T09:43:17.293Z,95503.52
2019-04-14T09:45:47.182Z,95511.97
2019-04-14T09:48:15.945Z,95514.41
2019-04-14T09:50:44.564Z,95514.68
2019-04-14T09:53:13.287Z,95520.84
2019-04-14T09:55:42.220Z,95517.91
2019-04-14T09:58:10.869Z,95514.73
2019-04-14T10:00:40.771Z,95505.75
2019-04-14T10:03:09.653Z,95519.59
2019-04-14T10:05:38.321Z,95517.72
2019-04-14T10:08:07.344Z,95512.73
2019-04-14T10:10:35.989Z,95514.32
2019-04-14T10:13:04.696Z,95515.50
2019-04-14T10:15:33.851Z,95520.41
2019-04-14T10:18:02.548Z,95513.41
2019-04-14T10:20:31.145Z,95515.87
2019-04-14T10:23:00.071Z,95525.53
2019-04-14T10:25:28.733Z,95526.64
2019-04-14T10:27:57.405Z,95529.72
2019-04-14T10:30:26.309Z,95533.66
2019-04-14T10:32:55.213Z,95536.67
2019-04-14T10:35:23.903Z,95531.27
2019-04-14T10:37:52.526Z,95527.53
2019-04-14T10:40:21.361Z,95531.95
2019-04-14T10:42:49.970Z,95536.28
2019-04-14T10:45:18.871Z,95524.05
2019-04-14T10:47:47.508Z,95535.43
2019-04-14T10:50:16.218Z,95540.17
2019-04-14T10:52:44.872Z,95541.65
2019-04-14T10:55:13.571Z,95537.97
2019-04-14T10:57:42.165Z,95539.66
2019-04-14T11:00:13.852Z,95548.13
2019-04-14T11:02:42.472Z,95535.11
2019-04-14T11:05:11.329Z,95538.41
2019-04-14T11:07:40.184Z,95541.97
2019-04-14T11:10:10.011Z,95542.44
2019-04-14T11:12:38.699Z,95540.39
2019-04-14T11:15:08.080Z,95544.99
2019-04-14T11:17:36.744Z,95547.16
2019-04-14T11:20:05.893Z,95552.77
2019-04-14T11:22:34.745Z,95546.19
2019-04-14T11:25:03.543Z,95549.98
2019-04-14T11:27:32.240Z,95545.41
2019-04-14T11:30:00.873Z,95550.61
2019-04-14T11:32:44.699Z,95543.05
2019-04-14T11:35:23.453Z,95549.66
2019-04-14T11:38:02.656Z,95549.10
2019-04-14T11:40:35.417Z,95558.39
2019-04-14T11:43:04.056Z,95561.09
2019-04-14T11:45:32.690Z,95558.97
2019-04-14T11:48:01.409Z,95558.97
2019-04-14T11:50:30.069Z,95557.98
2019-04-14T11:52:58.985Z,95547.52
2019-04-14T11:55:27.644Z,95551.20
2019-04-14T11:57:56.302Z,95543.48
2019-04-14T12:00:43.906Z,95545.48
2019-04-14T12:03:34.540Z,95546.71
2019-04-14T12:09:37.985Z,95543.66
2019-04-14T12:12:08.621Z,95540.99
2019-04-14T12:14:37.329Z,95542.28
2019-04-14T12:17:05.961Z,95555.36
2019-04-14T12:19:34.892Z,95559.54
2019-04-14T12:22:08.384Z,95553.56
2019-04-14T12:24:34.057Z,95562.98
2019-04-14T12:27:02.965Z,95572.46
2019-04-14T12:29:32.561Z,95571.27
2019-04-14T12:32:01.799Z,95571.27
2019-04-14T12:34:30.403Z,95564.97
2019-04-14T12:36:59.277Z,95574.39
2019-04-14T12:39:27.907Z,95578.78
2019-04-14T12:42:05.739Z,95578.06
2019-04-14T12:44:41.350Z,95573.31
2019-04-14T12:47:19.774Z,95576.39
2019-04-14T12:49:49.583Z,95574.04
2019-04-14T12:52:21.990Z,95567.83
2019-04-14T12:54:50.925Z,95575.47
2019-04-14T12:57:33.297Z,95581.13
2019-04-14T13:00:02.141Z,95583.12
2019-04-14T13:02:33.872Z,95588.37
2019-04-14T13:05:02.599Z,95597.00
2019-04-14T13:07:31.573Z,95592.72
2019-04-14T13:10:00.396Z,95600.08
2019-04-14T13:12:29.103Z,95598.58
2019-04-14T13:14:57.953Z,95595.73
2019-04-14T13:17:26.655Z,95590.04
2019-04-14T13:19:55.726Z,95591.77
2019-04-14T13:22:33.797Z,95583.16
2019-04-14T13:24:54.839Z,95589.77
2019-04-14T13:27:23.592Z,95582.25
2019-04-14T13:29:52.242Z,95582.52
2019-04-14T13:32:21.010Z,95582.52
2019-04-14T13:34:50.146Z,95582.52
2019-04-14T13:37:19.257Z,95581.94
2019-04-14T13:39:47.895Z,95579.59
2019-04-14T13:42:16.606Z,95583.32
2019-04-14T13:44:45.499Z,95580.50
2019-04-14T13:47:14.422Z,95588.22
2019-04-14T13:49:43.178Z,95588.30
2019-04-14T13:52:12.040Z,95595.53
2019-04-14T13:54:40.676Z,95593.54
2019-04-14T13:57:09.313Z,95586.10
2019-04-14T13:59:37.936Z,95589.59
2019-04-14T14:02:06.979Z,95589.20
2019-04-14T14:04:35.629Z,95589.91
2019-04-14T14:07:04.805Z,95589.51
2019-04-14T14:09:33.452Z,95599.92
2019-04-14T14:12:14.200Z,95584.62
2019-04-14T14:15:00.880Z,95581.45
2019-04-14T14:17:57.646Z,95583.97
2019-04-14T14:20:45.329Z,95578.55
2019-04-14T14:23:32.981Z,95578.73
2019-04-14T14:26:05.022Z,95573.25
2019-04-14T14:28:33.650Z,95573.02
2019-04-14T14:31:02.249Z,95568.77
2019-04-14T14:33:30.873Z,95570.64
2019-04-14T14:35:59.666Z,95569.02
2019-04-14T14:38:28.286Z,95568.20
2019-04-14T14:40:58.495Z,95572.45
2019-04-14T14:43:27.373Z,95573.27
2019-04-14T14:46:06.878Z,95574.42
2019-04-14T14:48:47.619Z,95572.13
2019-04-14T14:51:32.528Z,95584.57
2019-04-14T14:54:01.172Z,95579.78
2019-04-14T14:56:30.221Z,95586.11
2019-04-14T14:58:58.828Z,95579.56
2019-04-14T15:01:27.681Z,95587.16
2019-04-14T15:03:56.378Z,95586.28
2019-04-14T15:06:25.284Z,95590.05
2019-04-14T15:08:53.877Z,95589.02
2019-04-14T15:11:22.521Z,95587.06
2019-04-14T15:13:51.430Z,95596.23
2019-04-14T15:16:20.038Z,95585.55
2019-04-14T15:18:48.732Z,95581.22
2019-04-14T15:21:17.412Z,95582.45
2019-04-14T15:23:46.045Z,95588.44
2019-04-14T15:26:14.830Z,95583.47
2019-04-14T15:28:43.442Z,95580.71
2019-04-14T15:31:12.074Z,95585.08
2019-04-14T15:33:40.748Z,95585.90
2019-04-14T15:36:09.420Z,95588.11
2019-04-14T15:38:38.579Z,95593.91
2019-04-14T15:41:07.213Z,95590.50
2019-04-14T15:43:35.890Z,95591.53
2019-04-14T15:46:04.611Z,95592.19
2019-04-14T15:48:33.591Z,95590.06
2019-04-14T15:51:02.326Z,95588.86
2019-04-14T15:53:37.876Z,95589.50
2019-04-14T15:56:01.341Z,95587.23
2019-04-14T15:58:47.879Z,95596.09
2019-04-14T16:01:42.056Z,95594.27
2019-04-14T16:04:32.850Z,95598.22
2019-04-14T16:07:26.367Z,95600.55
2019-04-14T16:10:07.833Z,95601.38
2019-04-14T16:12:46.933Z,95594.45
2019-04-14T16:15:29.095Z,95590.86
2019-04-14T16:18:08.343Z,95605.19
2019-04-14T16:20:38.659Z,95606.92
2019-04-14T16:23:07.429Z,95617.04
2019-04-14T16:25:59.307Z,95611.14
2019-04-14T16:28:42.657Z,95603.54
2019-04-14T16:31:33.551Z,95615.83
2019-04-14T16:34:25.215Z,95613.05
2019-04-14T16:36:53.846Z,95608.06
2019-04-14T16:39:22.993Z,95613.36
2019-04-14T16:41:52.676Z,95610.00
2019-04-14T16:44:21.297Z,95610.77
2019-04-14T16:46:49.943Z,95615.16
2019-04-14T16:49:18.977Z,95614.12
2019-04-14T16:51:52.005Z,95615.77
2019-04-14T16:54:33.692Z,95617.63
2019-04-14T16:57:21.360Z,95622.22
2019-04-14T16:59:50.038Z,95624.30
2019-04-14T17:02:18.896Z,95628.56
2019-04-14T17:04:48.273Z,95623.98
2019-04-14T17:07:17.001Z,95622.81
2019-04-14T17:09:45.941Z,95631.73
2019-04-14T17:12:15.809Z,95626.81
2019-04-14T17:14:54.346Z,95630.25
2019-04-14T17:17:40.670Z,95637.49
2019-04-14T17:20:19.776Z,95638.23
2019-04-14T17:22:57.289Z,95654.98
2019-04-14T17:25:47.771Z,95644.58
2019-04-14T17:28:35.486Z,95652.58
2019-04-14T17:31:11.394Z,95655.25
2019-04-14T17:33:57.981Z,95653.71
2019-04-14T17:36:37.288Z,95657.61
2019-04-14T17:39:23.315Z,95664.23
2019-04-14T17:42:10.953Z,95661.95
2019-04-14T17:44:58.614Z,95668.19
2019-04-14T17:47:37.861Z,95670.51
2019-04-14T17:50:18.979Z,95672.80
2019-04-14T17:52:51.957Z,95671.49
2019-04-14T17:55:31.113Z,95682.02
2019-04-14T17:58:03.347Z,95673.86
2019-04-14T18:00:49.609Z,95684.05
2019-04-14T18:03:43.814Z,95687.54
2019-04-14T18:06:16.444Z,95691.81
2019-04-14T18:08:58.762Z,95686.00
2019-04-14T18:11:49.356Z,95696.91
2019-04-14T18:14:27.005Z,95698.17
2019-04-14T18:17:23.712Z,95693.27
2019-04-14T18:19:56.306Z,95697.95
2019-04-14T18:22:24.924Z,95704.52
2019-04-14T18:24:53.532Z,95700.25
2019-04-14T18:27:22.164Z,95699.28
2019-04-14T18:30:10.078Z,95706.82
2019-04-14T18:32:47.708Z,95706.06
2019-04-14T18:35:27.946Z,95713.64
2019-04-14T18:38:08.532Z,95709.03
2019-04-14T18:40:52.756Z,95715.63
2019-04-14T18:43:32.160Z,95721.12
2019-04-14T18:46:06.529Z,95714.89
2019-04-14T18:48:54.432Z,95719.52
2019-04-14T18:51:27.834Z,95720.80
2019-04-14T18:54:14.422Z,95721.48
2019-04-14T18:56:49.808Z,95722.30
2019-04-14T18:59:35.437Z,95723.08
2019-04-14T19:02:04.336Z,95736.34
2019-04-14T19:04:32.963Z,95730.34
2019-04-14T19:07:01.630Z,95728.16
2019-04-14T19:09:30.233Z,95735.42
2019-04-14T19:12:23.968Z,95736.00
2019-04-14T19:14:57.933Z,95741.97
2019-04-14T19:17:31.513Z,95749.63
2019-04-14T19:20:01.826Z,95743.22
2019-04-14T19:22:30.649Z,95749.74
2019-04-14T19:25:07.824Z,95751.09
2019-04-14T19:27:29.692Z,95748.22
2019-04-14T19:29:58.338Z,95750.85
2019-04-14T19:32:26.957Z,95754.40
2019-04-14T19:34:55.828Z,95747.10
2019-04-14T19:37:24.454Z,95755.75
2019-04-14T19:39:53.106Z,95752.88
2019-04-14T19:42:21.737Z,95755.11
2019-04-14T19:44:50.370Z,95757.16
2019-04-14T19:47:19.103Z,95754.85
2019-04-14T19:49:47.658Z,95757.44
2019-04-14T19:52:16.538Z,95755.08
2019-04-14T19:54:45.488Z,95757.31
2019-04-14T19:57:14.258Z,95754.33
2019-04-14T19:59:43.159Z,95755.88
2019-04-14T20:02:12.178Z,95750.39
2019-04-14T20:04:40.899Z,95751.05
2019-04-14T20:07:09.565Z,95750.52
2019-04-14T20:09:38.438Z,95745.93
2019-04-14T20:12:07.054Z,95744.98
2019-04-14T20:14:36.169Z,95748.78
2019-04-14T20:17:24.037Z,95745.71
2019-04-14T20:20:00.909Z,95754.34
2019-04-14T20:23:02.165Z,95753.27
2019-04-14T20:25:43.557Z,95752.88
2019-04-14T20:28:31.232Z,95757.79
2019-04-14T20:31:11.303Z,95756.05
2019-04-14T20:33:39.941Z,95756.37
2019-04-14T20:36:08.545Z,95761.66
2019-04-14T20:38:37.249Z,95767.05
2019-04-14T20:41:05.865Z,95765.97
2019-04-14T20:43:34.496Z,95766.88
2019-04-14T20:46:03.121Z,95768.22
2019-04-14T20:48:31.733Z,95773.54
2019-04-14T20:51:00.322Z,95776.13
2019-04-14T20:53:28.945Z,95772.00
2019-04-14T20:55:57.677Z,95764.81
2019-04-14T20:58:26.830Z,95763.61
2019-04-14T21:00:55.525Z,95761.13
2019-04-14T21:03:46.576Z,95770.50
2019-04-14T21:06:34.289Z,95777.44
2019-04-14T21:09:21.979Z,95773.40
2019-04-14T21:11:59.279Z,95774.67
2019-04-14T21:14:45.491Z,95776.66
2019-04-14T21:17:20.483Z,95778.91
2019-04-14T21:19:54.583Z,95782.79
2019-04-14T21:22:30.059Z,95789.36
2019-04-14T21:25:08.383Z,95788.05
2019-04-14T21:27:54.760Z,95791.52
2019-04-14T21:30:34.988Z,95792.54
2019-04-14T21:33:18.778Z,95791.00
2019-04-14T21:36:01.272Z,95788.73
2019-04-14T21:38:48.816Z,95789.70
2019-04-14T21:41:21.218Z,95789.67
2019-04-14T21:43:50.121Z,95791.02
2019-04-14T21:46:18.963Z,95792.71
2019-04-14T21:48:47.827Z,95798.77
2019-04-14T21:51:16.711Z,95795.37
2019-04-14T21:53:46.094Z,95801.09
2019-04-14T21:56:14.759Z,95799.82
2019-04-14T21:59:01.514Z,95802.05
2019-04-14T22:01:52.968Z,95808.70
2019-04-14T22:04:47.069Z,95807.52
2019-04-14T22:07:41.086Z,95803.75
2019-04-14T22:10:22.196Z,95809.25
2019-04-14T22:12:51.069Z,95806.01
2019-04-14T22:15:19.672Z,95807.27
2019-04-14T22:17:48.296Z,95808.41
2019-04-14T22:20:17.034Z,95810.14
2019-04-14T22:22:45.737Z,95809.78
2019-04-14T22:25:14.713Z,95814.81
2019-04-14T22:27:43.385Z,95809.15
2019-04-14T22:30:12.302Z,95816.45
2019-04-14T22:32:40.917Z,95813.78
2019-04-14T22:35:09.744Z,95812.50
2019-04-14T22:37:38.566Z,95819.52
2019-04-14T22:40:07.485Z,95812.94
2019-04-14T22:42:36.348Z,95816.72
2019-04-14T22:45:05.474Z,95815.26
2019-04-14T22:47:34.082Z,95818.68
2019-04-14T22:50:02.906Z,95820.50
2019-04-14T22:52:31.505Z,95814.99
2019-04-14T22:55:00.480Z,95814.64
2019-04-14T22:57:29.184Z,95812.38
2019-04-14T22:59:57.760Z,95823.04
2019-04-14T23:02:40.853Z,95819.77
2019-04-14T23:05:22.843Z,95819.93
2019-04-14T23:08:28.788Z,95818.80
2019-04-14T23:11:08.629Z,95819.53
2019-04-14T23:13:54.782Z,95810.06
2019-04-14T23:16:34.793Z,95808.67
2019-04-14T23:19:10.693Z,95806.12
2019-04-14T23:21:43.308Z,95800.27
2019-04-14T23:24:17.063Z,95803.63
2019-04-14T23:26:52.431Z,95801.39
2019-04-14T23:29:16.282Z,95800.11
2019-04-14T23:31:45.247Z,95799.44
2019-04-14T23:34:13.854Z,95805.67
2019-04-14T23:36:42.481Z,95804.34
2019-04-14T23:39:12.661Z,95803.56
2019-04-14T23:41:41.332Z,95796.78
2019-04-14T23:44:10.053Z,95790.80
2019-04-14T23:46:38.751Z,95791.48
2019-04-14T23:49:07.391Z,95791.81
2019-04-14T23:51:36.004Z,95791.66
2019-04-14T23:54:04.723Z,95783.75
2019-04-14T23:56:33.371Z,95790.85
2019-04-14T23:59:02.284Z,95789.41
